sensor_id;sensor_type;location;lat;lon;timestamp;P1;durP1;ratioP1;P2;durP2;ratioP2
46815;SDS011;32787;53.316;8.670;2022-09-09T00:02:20;22.70;;;12.82;;
46815;SDS011;32787;53.316;8.670;2022-09-09T00:04:58;18.67;;;11.30;;
46815;SDS011;32787;53.316;8.670;2022-09-09T00:12:55;21.83;;;12.50;;
46815;SDS011;32787;53.316;8.670;2022-09-09T00:15:23;20.58;;;12.73;;
46815;SDS011;32787;53.316;8.670;2022-09-09T00:20:44;20.83;;;9.23;;
46815;SDS011;32787;53.316;8.670;2022-09-09T00:23:23;14.70;;;9.40;;
46815;SDS011;32787;53.316;8.670;2022-09-09T00:26:01;41.72;;;9.95;;
46815;SDS011;32787;53.316;8.670;2022-09-09T00:28:28;16.30;;;9.55;;
46815;SDS011;32787;53.316;8.670;2022-09-09T00:30:59;15.52;;;10.43;;
46815;SDS011;32787;53.316;8.670;2022-09-09T00:33:41;17.90;;;10.02;;
46815;SDS011;32787;53.316;8.670;2022-09-09T00:36:13;17.92;;;10.43;;
46815;SDS011;32787;53.316;8.670;2022-09-09T00:38:47;16.60;;;11.15;;
46815;SDS011;32787;53.316;8.670;2022-09-09T00:41:29;17.60;;;12.30;;
46815;SDS011;32787;53.316;8.670;2022-09-09T00:44:12;20.85;;;12.60;;
46815;SDS011;32787;53.316;8.670;2022-09-09T00:54:50;20.70;;;12.68;;
46815;SDS011;32787;53.316;8.670;2022-09-09T00:57:36;24.67;;;12.35;;
46815;SDS011;32787;53.316;8.670;2022-09-09T01:00:17;19.45;;;12.57;;
46815;SDS011;32787;53.316;8.670;2022-09-09T01:07:57;21.38;;;13.85;;
46815;SDS011;32787;53.316;8.670;2022-09-09T01:10:39;22.83;;;13.70;;
46815;SDS011;32787;53.316;8.670;2022-09-09T01:13:16;24.60;;;14.45;;
46815;SDS011;32787;53.316;8.670;2022-09-09T01:16:00;21.33;;;12.80;;
46815;SDS011;32787;53.316;8.670;2022-09-09T01:18:33;23.13;;;13.45;;
46815;SDS011;32787;53.316;8.670;2022-09-09T01:27:02;18.98;;;11.88;;
46815;SDS011;32787;53.316;8.670;2022-09-09T01:29:30;21.40;;;11.68;;
46815;SDS011;32787;53.316;8.670;2022-09-09T01:31:59;21.50;;;11.73;;
46815;SDS011;32787;53.316;8.670;2022-09-09T01:34:29;18.55;;;12.50;;
46815;SDS011;32787;53.316;8.670;2022-09-09T01:37:05;20.40;;;13.07;;
46815;SDS011;32787;53.316;8.670;2022-09-09T01:39:33;23.15;;;13.00;;
46815;SDS011;32787;53.316;8.670;2022-09-09T01:42:00;25.17;;;14.13;;
46815;SDS011;32787;53.316;8.670;2022-09-09T01:44:27;21.27;;;13.60;;
46815;SDS011;32787;53.316;8.670;2022-09-09T01:46:54;21.38;;;13.98;;
46815;SDS011;32787;53.316;8.670;2022-09-09T01:49:20;22.55;;;14.50;;
46815;SDS011;32787;53.316;8.670;2022-09-09T01:51:47;20.05;;;13.77;;
46815;SDS011;32787;53.316;8.670;2022-09-09T02:04:50;18.17;;;11.55;;
46815;SDS011;32787;53.316;8.670;2022-09-09T02:07:40;20.00;;;11.98;;
46815;SDS011;32787;53.316;8.670;2022-09-09T02:12:42;18.63;;;11.73;;
46815;SDS011;32787;53.316;8.670;2022-09-09T02:15:22;19.83;;;11.27;;
46815;SDS011;32787;53.316;8.670;2022-09-09T02:17:53;17.85;;;11.55;;
46815;SDS011;32787;53.316;8.670;2022-09-09T02:20:22;18.95;;;11.95;;
46815;SDS011;32787;53.316;8.670;2022-09-09T02:22:50;16.73;;;11.18;;
46815;SDS011;32787;53.316;8.670;2022-09-09T02:25:17;18.00;;;10.23;;
46815;SDS011;32787;53.316;8.670;2022-09-09T02:27:46;17.05;;;11.27;;
46815;SDS011;32787;53.316;8.670;2022-09-09T02:30:13;19.20;;;11.32;;
46815;SDS011;32787;53.316;8.670;2022-09-09T02:32:40;14.68;;;9.30;;
46815;SDS011;32787;53.316;8.670;2022-09-09T02:35:10;19.10;;;11.13;;
46815;SDS011;32787;53.316;8.670;2022-09-09T02:37:39;16.27;;;10.73;;
46815;SDS011;32787;53.316;8.670;2022-09-09T02:40:08;15.55;;;10.45;;
46815;SDS011;32787;53.316;8.670;2022-09-09T02:42:39;15.87;;;10.67;;
46815;SDS011;32787;53.316;8.670;2022-09-09T02:45:06;19.38;;;11.93;;
46815;SDS011;32787;53.316;8.670;2022-09-09T02:47:36;18.77;;;12.30;;
46815;SDS011;32787;53.316;8.670;2022-09-09T02:50:13;17.13;;;11.43;;
46815;SDS011;32787;53.316;8.670;2022-09-09T02:55:27;20.27;;;13.07;;
46815;SDS011;32787;53.316;8.670;2022-09-09T02:58:11;17.77;;;11.75;;
46815;SDS011;32787;53.316;8.670;2022-09-09T03:00:41;17.25;;;11.52;;
46815;SDS011;32787;53.316;8.670;2022-09-09T03:03:10;17.80;;;11.35;;
46815;SDS011;32787;53.316;8.670;2022-09-09T03:05:36;19.75;;;11.20;;
46815;SDS011;32787;53.316;8.670;2022-09-09T03:08:02;17.25;;;11.38;;
46815;SDS011;32787;53.316;8.670;2022-09-09T03:10:28;17.15;;;10.80;;
46815;SDS011;32787;53.316;8.670;2022-09-09T03:12:54;27.58;;;10.65;;
46815;SDS011;32787;53.316;8.670;2022-09-09T03:15:20;16.10;;;10.85;;
46815;SDS011;32787;53.316;8.670;2022-09-09T03:17:46;15.32;;;10.13;;
46815;SDS011;32787;53.316;8.670;2022-09-09T03:20:12;16.95;;;11.90;;
46815;SDS011;32787;53.316;8.670;2022-09-09T03:22:38;18.73;;;11.20;;
46815;SDS011;32787;53.316;8.670;2022-09-09T03:25:03;16.45;;;10.98;;
46815;SDS011;32787;53.316;8.670;2022-09-09T03:27:30;18.55;;;11.73;;
46815;SDS011;32787;53.316;8.670;2022-09-09T03:29:56;17.30;;;12.10;;
46815;SDS011;32787;53.316;8.670;2022-09-09T03:32:22;20.55;;;12.70;;
46815;SDS011;32787;53.316;8.670;2022-09-09T03:34:50;17.50;;;11.82;;
46815;SDS011;32787;53.316;8.670;2022-09-09T03:37:17;20.48;;;12.60;;
46815;SDS011;32787;53.316;8.670;2022-09-09T03:39:43;20.25;;;12.13;;
46815;SDS011;32787;53.316;8.670;2022-09-09T03:42:11;20.60;;;12.38;;
46815;SDS011;32787;53.316;8.670;2022-09-09T03:44:39;20.10;;;12.18;;
46815;SDS011;32787;53.316;8.670;2022-09-09T03:47:05;20.73;;;12.63;;
46815;SDS011;32787;53.316;8.670;2022-09-09T03:49:31;17.60;;;12.20;;
46815;SDS011;32787;53.316;8.670;2022-09-09T03:51:56;17.92;;;12.57;;
46815;SDS011;32787;53.316;8.670;2022-09-09T03:54:24;17.00;;;11.80;;
46815;SDS011;32787;53.316;8.670;2022-09-09T03:56:50;18.58;;;12.50;;
46815;SDS011;32787;53.316;8.670;2022-09-09T03:59:16;18.67;;;11.90;;
46815;SDS011;32787;53.316;8.670;2022-09-09T04:01:41;18.90;;;12.50;;
46815;SDS011;32787;53.316;8.670;2022-09-09T04:04:07;22.10;;;13.15;;
46815;SDS011;32787;53.316;8.670;2022-09-09T04:06:33;21.35;;;12.15;;
46815;SDS011;32787;53.316;8.670;2022-09-09T04:08:59;19.20;;;13.10;;
46815;SDS011;32787;53.316;8.670;2022-09-09T04:11:27;21.77;;;13.45;;
46815;SDS011;32787;53.316;8.670;2022-09-09T04:13:52;22.63;;;13.13;;
46815;SDS011;32787;53.316;8.670;2022-09-09T04:16:18;23.55;;;12.77;;
46815;SDS011;32787;53.316;8.670;2022-09-09T04:18:45;22.58;;;13.75;;
46815;SDS011;32787;53.316;8.670;2022-09-09T04:21:11;20.25;;;13.63;;
46815;SDS011;32787;53.316;8.670;2022-09-09T04:23:37;20.88;;;13.85;;
46815;SDS011;32787;53.316;8.670;2022-09-09T04:26:03;24.63;;;15.10;;
46815;SDS011;32787;53.316;8.670;2022-09-09T04:28:30;25.27;;;14.13;;
46815;SDS011;32787;53.316;8.670;2022-09-09T04:31:08;20.95;;;14.20;;
46815;SDS011;32787;53.316;8.670;2022-09-09T04:33:45;24.40;;;15.38;;
46815;SDS011;32787;53.316;8.670;2022-09-09T04:36:11;24.55;;;15.23;;
46815;SDS011;32787;53.316;8.670;2022-09-09T04:38:37;22.13;;;14.23;;
46815;SDS011;32787;53.316;8.670;2022-09-09T04:41:03;23.77;;;13.68;;
46815;SDS011;32787;53.316;8.670;2022-09-09T04:43:29;24.55;;;13.82;;
46815;SDS011;32787;53.316;8.670;2022-09-09T04:45:55;22.15;;;14.48;;
46815;SDS011;32787;53.316;8.670;2022-09-09T04:48:21;21.85;;;13.80;;
46815;SDS011;32787;53.316;8.670;2022-09-09T04:50:53;23.10;;;14.05;;
46815;SDS011;32787;53.316;8.670;2022-09-09T04:53:20;22.45;;;14.38;;
46815;SDS011;32787;53.316;8.670;2022-09-09T04:55:47;21.90;;;13.50;;
46815;SDS011;32787;53.316;8.670;2022-09-09T04:58:13;21.35;;;14.13;;
46815;SDS011;32787;53.316;8.670;2022-09-09T05:00:39;21.30;;;13.45;;
46815;SDS011;32787;53.316;8.670;2022-09-09T05:03:05;17.40;;;13.23;;
46815;SDS011;32787;53.316;8.670;2022-09-09T05:05:31;19.75;;;13.60;;
46815;SDS011;32787;53.316;8.670;2022-09-09T05:08:04;23.63;;;14.07;;
46815;SDS011;32787;53.316;8.670;2022-09-09T05:10:31;24.15;;;13.75;;
46815;SDS011;32787;53.316;8.670;2022-09-09T05:12:57;22.23;;;14.00;;
46815;SDS011;32787;53.316;8.670;2022-09-09T05:15:23;20.00;;;13.40;;
46815;SDS011;32787;53.316;8.670;2022-09-09T05:17:48;23.63;;;14.25;;
46815;SDS011;32787;53.316;8.670;2022-09-09T05:20:14;26.23;;;15.45;;
46815;SDS011;32787;53.316;8.670;2022-09-09T05:22:39;19.60;;;12.23;;
46815;SDS011;32787;53.316;8.670;2022-09-09T05:25:05;19.73;;;11.95;;
46815;SDS011;32787;53.316;8.670;2022-09-09T05:27:33;22.23;;;14.18;;
46815;SDS011;32787;53.316;8.670;2022-09-09T05:29:59;21.25;;;12.48;;
46815;SDS011;32787;53.316;8.670;2022-09-09T05:32:25;20.63;;;13.35;;
46815;SDS011;32787;53.316;8.670;2022-09-09T05:34:51;22.33;;;12.63;;
46815;SDS011;32787;53.316;8.670;2022-09-09T05:37:17;18.13;;;11.98;;
46815;SDS011;32787;53.316;8.670;2022-09-09T05:39:43;19.77;;;11.88;;
46815;SDS011;32787;53.316;8.670;2022-09-09T05:42:09;17.38;;;11.88;;
46815;SDS011;32787;53.316;8.670;2022-09-09T05:44:34;18.02;;;11.32;;
46815;SDS011;32787;53.316;8.670;2022-09-09T05:47:00;18.27;;;11.77;;
46815;SDS011;32787;53.316;8.670;2022-09-09T05:49:26;18.42;;;11.88;;
46815;SDS011;32787;53.316;8.670;2022-09-09T05:51:52;19.92;;;12.02;;
46815;SDS011;32787;53.316;8.670;2022-09-09T05:54:18;19.17;;;11.52;;
46815;SDS011;32787;53.316;8.670;2022-09-09T05:56:43;18.15;;;11.95;;
46815;SDS011;32787;53.316;8.670;2022-09-09T05:59:09;17.23;;;11.75;;
46815;SDS011;32787;53.316;8.670;2022-09-09T06:01:36;22.25;;;11.75;;
46815;SDS011;32787;53.316;8.670;2022-09-09T06:04:05;15.00;;;10.80;;
46815;SDS011;32787;53.316;8.670;2022-09-09T06:06:33;21.35;;;12.73;;
46815;SDS011;32787;53.316;8.670;2022-09-09T06:09:05;16.67;;;11.50;;
46815;SDS011;32787;53.316;8.670;2022-09-09T06:14:01;21.50;;;11.93;;
46815;SDS011;32787;53.316;8.670;2022-09-09T06:16:27;18.92;;;12.07;;
46815;SDS011;32787;53.316;8.670;2022-09-09T06:18:54;21.20;;;12.50;;
46815;SDS011;32787;53.316;8.670;2022-09-09T06:21:25;20.20;;;12.32;;
46815;SDS011;32787;53.316;8.670;2022-09-09T06:23:52;19.70;;;12.93;;
46815;SDS011;32787;53.316;8.670;2022-09-09T06:26:28;23.13;;;12.50;;
46815;SDS011;32787;53.316;8.670;2022-09-09T06:28:56;18.95;;;12.40;;
46815;SDS011;32787;53.316;8.670;2022-09-09T06:31:24;20.17;;;12.43;;
46815;SDS011;32787;53.316;8.670;2022-09-09T06:33:52;21.50;;;12.30;;
46815;SDS011;32787;53.316;8.670;2022-09-09T06:36:23;18.35;;;11.35;;
46815;SDS011;32787;53.316;8.670;2022-09-09T06:38:50;17.52;;;12.07;;
46815;SDS011;32787;53.316;8.670;2022-09-09T06:41:17;18.67;;;11.95;;
46815;SDS011;32787;53.316;8.670;2022-09-09T06:43:44;22.95;;;12.40;;
46815;SDS011;32787;53.316;8.670;2022-09-09T06:46:10;16.50;;;11.23;;
46815;SDS011;32787;53.316;8.670;2022-09-09T06:48:41;19.25;;;11.27;;
46815;SDS011;32787;53.316;8.670;2022-09-09T06:53:43;19.17;;;11.45;;
46815;SDS011;32787;53.316;8.670;2022-09-09T06:58:37;20.40;;;11.90;;
46815;SDS011;32787;53.316;8.670;2022-09-09T07:01:09;18.88;;;10.40;;
46815;SDS011;32787;53.316;8.670;2022-09-09T07:03:37;18.05;;;11.20;;
46815;SDS011;32787;53.316;8.670;2022-09-09T07:06:03;18.08;;;10.50;;
46815;SDS011;32787;53.316;8.670;2022-09-09T07:08:30;18.85;;;10.30;;
46815;SDS011;32787;53.316;8.670;2022-09-09T07:11:03;15.10;;;10.50;;
46815;SDS011;32787;53.316;8.670;2022-09-09T07:13:30;17.30;;;10.25;;
46815;SDS011;32787;53.316;8.670;2022-09-09T07:16:03;16.27;;;10.65;;
46815;SDS011;32787;53.316;8.670;2022-09-09T07:18:29;18.50;;;10.57;;
46815;SDS011;32787;53.316;8.670;2022-09-09T07:20:55;19.08;;;9.80;;
46815;SDS011;32787;53.316;8.670;2022-09-09T07:23:22;19.38;;;10.30;;
46815;SDS011;32787;53.316;8.670;2022-09-09T07:25:48;17.48;;;9.63;;
46815;SDS011;32787;53.316;8.670;2022-09-09T07:28:14;17.85;;;9.73;;
46815;SDS011;32787;53.316;8.670;2022-09-09T07:30:40;18.73;;;10.57;;
46815;SDS011;32787;53.316;8.670;2022-09-09T07:33:05;17.05;;;9.57;;
46815;SDS011;32787;53.316;8.670;2022-09-09T07:35:31;14.80;;;9.00;;
46815;SDS011;32787;53.316;8.670;2022-09-09T07:37:58;14.10;;;8.18;;
46815;SDS011;32787;53.316;8.670;2022-09-09T07:40:25;17.90;;;7.97;;
46815;SDS011;32787;53.316;8.670;2022-09-09T07:42:51;12.73;;;7.75;;
46815;SDS011;32787;53.316;8.670;2022-09-09T07:45:17;13.68;;;7.18;;
46815;SDS011;32787;53.316;8.670;2022-09-09T07:47:43;12.38;;;6.47;;
46815;SDS011;32787;53.316;8.670;2022-09-09T07:50:10;11.82;;;6.80;;
46815;SDS011;32787;53.316;8.670;2022-09-09T07:52:36;11.27;;;6.80;;
46815;SDS011;32787;53.316;8.670;2022-09-09T07:55:02;12.25;;;6.97;;
46815;SDS011;32787;53.316;8.670;2022-09-09T07:57:29;10.23;;;5.97;;
46815;SDS011;32787;53.316;8.670;2022-09-09T07:59:55;12.43;;;6.15;;
46815;SDS011;32787;53.316;8.670;2022-09-09T08:02:22;11.82;;;6.03;;
46815;SDS011;32787;53.316;8.670;2022-09-09T08:04:49;10.30;;;5.25;;
46815;SDS011;32787;53.316;8.670;2022-09-09T08:07:15;8.88;;;5.05;;
46815;SDS011;32787;53.316;8.670;2022-09-09T08:09:41;8.50;;;4.95;;
46815;SDS011;32787;53.316;8.670;2022-09-09T08:12:07;8.25;;;4.72;;
46815;SDS011;32787;53.316;8.670;2022-09-09T08:14:34;8.27;;;4.20;;
46815;SDS011;32787;53.316;8.670;2022-09-09T08:17:00;12.95;;;4.82;;
46815;SDS011;32787;53.316;8.670;2022-09-09T08:19:25;7.63;;;4.10;;
46815;SDS011;32787;53.316;8.670;2022-09-09T08:21:54;7.82;;;4.72;;
46815;SDS011;32787;53.316;8.670;2022-09-09T08:24:19;9.55;;;4.60;;
46815;SDS011;32787;53.316;8.670;2022-09-09T08:26:46;8.02;;;4.60;;
46815;SDS011;32787;53.316;8.670;2022-09-09T08:29:14;10.23;;;4.70;;
46815;SDS011;32787;53.316;8.670;2022-09-09T08:31:41;7.05;;;4.50;;
46815;SDS011;32787;53.316;8.670;2022-09-09T08:34:12;8.63;;;4.43;;
46815;SDS011;32787;53.316;8.670;2022-09-09T08:36:39;10.57;;;3.92;;
46815;SDS011;32787;53.316;8.670;2022-09-09T08:39:07;8.02;;;4.10;;
46815;SDS011;32787;53.316;8.670;2022-09-09T08:58:24;7.35;;;4.20;;
46815;SDS011;32787;53.316;8.670;2022-09-09T09:00:57;12.02;;;4.47;;
46815;SDS011;32787;53.316;8.670;2022-09-09T09:11:55;9.60;;;6.35;;
46815;SDS011;32787;53.316;8.670;2022-09-09T09:14:26;10.07;;;7.25;;
46815;SDS011;32787;53.316;8.670;2022-09-09T09:17:05;10.77;;;7.80;;
46815;SDS011;32787;53.316;8.670;2022-09-09T09:19:34;10.32;;;8.30;;
46815;SDS011;32787;53.316;8.670;2022-09-09T09:22:06;13.53;;;7.70;;
46815;SDS011;32787;53.316;8.670;2022-09-09T09:27:33;10.43;;;7.50;;
46815;SDS011;32787;53.316;8.670;2022-09-09T09:30:01;10.27;;;7.10;;
46815;SDS011;32787;53.316;8.670;2022-09-09T09:35:21;9.18;;;5.95;;
46815;SDS011;32787;53.316;8.670;2022-09-09T09:37:46;9.98;;;6.47;;
46815;SDS011;32787;53.316;8.670;2022-09-09T09:40:14;12.80;;;6.80;;
46815;SDS011;32787;53.316;8.670;2022-09-09T09:42:48;9.15;;;5.85;;
46815;SDS011;32787;53.316;8.670;2022-09-09T09:48:04;9.70;;;5.15;;
46815;SDS011;32787;53.316;8.670;2022-09-09T09:50:31;10.55;;;5.72;;
46815;SDS011;32787;53.316;8.670;2022-09-09T09:52:59;10.52;;;5.90;;
46815;SDS011;32787;53.316;8.670;2022-09-09T09:55:27;10.02;;;5.60;;
46815;SDS011;32787;53.316;8.670;2022-09-09T09:58:05;6.97;;;4.93;;
46815;SDS011;32787;53.316;8.670;2022-09-09T10:00:32;7.90;;;5.72;;
46815;SDS011;32787;53.316;8.670;2022-09-09T10:03:00;7.13;;;5.25;;
46815;SDS011;32787;53.316;8.670;2022-09-09T10:05:27;11.05;;;6.13;;
46815;SDS011;32787;53.316;8.670;2022-09-09T10:10:52;10.45;;;5.65;;
46815;SDS011;32787;53.316;8.670;2022-09-09T10:13:29;11.88;;;5.38;;
46815;SDS011;32787;53.316;8.670;2022-09-09T10:16:13;7.90;;;4.70;;
46815;SDS011;32787;53.316;8.670;2022-09-09T10:19:05;10.10;;;4.93;;
46815;SDS011;32787;53.316;8.670;2022-09-09T10:21:41;9.35;;;4.75;;
46815;SDS011;32787;53.316;8.670;2022-09-09T10:27:19;8.38;;;3.47;;
46815;SDS011;32787;53.316;8.670;2022-09-09T10:32:48;8.02;;;3.20;;
46815;SDS011;32787;53.316;8.670;2022-09-09T10:38:16;7.13;;;2.40;;
46815;SDS011;32787;53.316;8.670;2022-09-09T10:40:58;5.30;;;2.20;;
46815;SDS011;32787;53.316;8.670;2022-09-09T10:46:21;5.93;;;1.88;;
46815;SDS011;32787;53.316;8.670;2022-09-09T10:49:17;6.65;;;2.28;;
46815;SDS011;32787;53.316;8.670;2022-09-09T10:52:04;7.18;;;2.20;;
46815;SDS011;32787;53.316;8.670;2022-09-09T10:57:40;7.05;;;2.63;;
46815;SDS011;32787;53.316;8.670;2022-09-09T11:00:17;7.20;;;2.17;;
46815;SDS011;32787;53.316;8.670;2022-09-09T11:02:47;9.48;;;2.17;;
46815;SDS011;32787;53.316;8.670;2022-09-09T11:08:01;7.88;;;2.40;;
46815;SDS011;32787;53.316;8.670;2022-09-09T11:10:41;8.32;;;2.55;;
46815;SDS011;32787;53.316;8.670;2022-09-09T11:16:28;6.75;;;2.47;;
46815;SDS011;32787;53.316;8.670;2022-09-09T11:21:48;7.15;;;2.25;;
46815;SDS011;32787;53.316;8.670;2022-09-09T11:27:06;4.90;;;2.45;;
46815;SDS011;32787;53.316;8.670;2022-09-09T11:43:00;7.60;;;2.63;;
46815;SDS011;32787;53.316;8.670;2022-09-09T11:45:54;8.70;;;3.42;;
46815;SDS011;32787;53.316;8.670;2022-09-09T11:51:01;9.00;;;3.55;;
46815;SDS011;32787;53.316;8.670;2022-09-09T11:53:32;9.50;;;3.75;;
46815;SDS011;32787;53.316;8.670;2022-09-09T11:56:02;12.00;;;3.45;;
46815;SDS011;32787;53.316;8.670;2022-09-09T11:58:33;9.60;;;3.80;;
46815;SDS011;32787;53.316;8.670;2022-09-09T12:01:26;7.45;;;3.42;;
46815;SDS011;32787;53.316;8.670;2022-09-09T12:06:50;9.45;;;3.28;;
46815;SDS011;32787;53.316;8.670;2022-09-09T12:09:22;10.25;;;2.88;;
46815;SDS011;32787;53.316;8.670;2022-09-09T12:11:52;9.77;;;2.88;;
46815;SDS011;32787;53.316;8.670;2022-09-09T12:14:21;8.13;;;2.78;;
46815;SDS011;32787;53.316;8.670;2022-09-09T12:19:41;11.02;;;3.20;;
46815;SDS011;32787;53.316;8.670;2022-09-09T12:24:49;6.93;;;2.83;;
46815;SDS011;32787;53.316;8.670;2022-09-09T12:27:36;8.95;;;2.63;;
46815;SDS011;32787;53.316;8.670;2022-09-09T12:30:10;7.30;;;2.83;;
46815;SDS011;32787;53.316;8.670;2022-09-09T12:32:40;7.20;;;2.75;;
46815;SDS011;32787;53.316;8.670;2022-09-09T12:37:52;6.50;;;2.60;;
46815;SDS011;32787;53.316;8.670;2022-09-09T12:40:25;7.78;;;2.72;;
46815;SDS011;32787;53.316;8.670;2022-09-09T12:42:57;10.43;;;3.10;;
46815;SDS011;32787;53.316;8.670;2022-09-09T12:45:25;8.80;;;2.90;;
46815;SDS011;32787;53.316;8.670;2022-09-09T12:50:22;6.68;;;2.50;;
46815;SDS011;32787;53.316;8.670;2022-09-09T12:52:53;9.48;;;2.97;;
46815;SDS011;32787;53.316;8.670;2022-09-09T12:55:23;7.53;;;3.35;;
46815;SDS011;32787;53.316;8.670;2022-09-09T12:57:52;8.93;;;3.40;;
46815;SDS011;32787;53.316;8.670;2022-09-09T13:00:20;5.55;;;2.97;;
46815;SDS011;32787;53.316;8.670;2022-09-09T13:05:19;9.75;;;3.38;;
46815;SDS011;32787;53.316;8.670;2022-09-09T13:07:50;12.48;;;3.78;;
46815;SDS011;32787;53.316;8.670;2022-09-09T13:10:21;8.07;;;3.50;;
46815;SDS011;32787;53.316;8.670;2022-09-09T13:12:51;8.45;;;3.67;;
46815;SDS011;32787;53.316;8.670;2022-09-09T13:15:21;11.05;;;3.67;;
46815;SDS011;32787;53.316;8.670;2022-09-09T13:17:53;10.85;;;4.13;;
46815;SDS011;32787;53.316;8.670;2022-09-09T13:20:21;10.30;;;3.50;;
46815;SDS011;32787;53.316;8.670;2022-09-09T13:22:49;10.45;;;3.03;;
46815;SDS011;32787;53.316;8.670;2022-09-09T13:25:26;4.95;;;1.98;;
46815;SDS011;32787;53.316;8.670;2022-09-09T13:27:58;5.22;;;1.90;;
46815;SDS011;32787;53.316;8.670;2022-09-09T13:35:34;7.32;;;2.35;;
46815;SDS011;32787;53.316;8.670;2022-09-09T13:38:12;8.18;;;2.53;;
46815;SDS011;32787;53.316;8.670;2022-09-09T13:40:39;7.47;;;2.70;;
46815;SDS011;32787;53.316;8.670;2022-09-09T13:43:05;10.93;;;3.10;;
46815;SDS011;32787;53.316;8.670;2022-09-09T13:45:52;6.10;;;2.78;;
46815;SDS011;32787;53.316;8.670;2022-09-09T13:48:23;7.25;;;2.83;;
46815;SDS011;32787;53.316;8.670;2022-09-09T13:50:59;10.00;;;3.00;;
46815;SDS011;32787;53.316;8.670;2022-09-09T13:53:28;8.32;;;2.95;;
46815;SDS011;32787;53.316;8.670;2022-09-09T13:55:53;7.95;;;3.08;;
46815;SDS011;32787;53.316;8.670;2022-09-09T13:58:19;6.85;;;3.45;;
46815;SDS011;32787;53.316;8.670;2022-09-09T14:00:47;8.20;;;3.30;;
46815;SDS011;32787;53.316;8.670;2022-09-09T14:03:14;11.88;;;4.18;;
46815;SDS011;32787;53.316;8.670;2022-09-09T14:05:40;11.32;;;3.33;;
46815;SDS011;32787;53.316;8.670;2022-09-09T14:08:07;8.60;;;3.45;;
46815;SDS011;32787;53.316;8.670;2022-09-09T14:10:40;9.35;;;3.72;;
46815;SDS011;32787;53.316;8.670;2022-09-09T14:13:06;11.13;;;4.05;;
46815;SDS011;32787;53.316;8.670;2022-09-09T14:15:33;6.85;;;3.35;;
46815;SDS011;32787;53.316;8.670;2022-09-09T14:17:58;7.55;;;3.78;;
46815;SDS011;32787;53.316;8.670;2022-09-09T14:20:24;8.20;;;4.03;;
46815;SDS011;32787;53.316;8.670;2022-09-09T14:22:50;11.20;;;4.18;;
46815;SDS011;32787;53.316;8.670;2022-09-09T14:25:15;9.82;;;4.38;;
46815;SDS011;32787;53.316;8.670;2022-09-09T14:27:41;11.38;;;4.43;;
46815;SDS011;32787;53.316;8.670;2022-09-09T14:30:08;10.80;;;4.57;;
46815;SDS011;32787;53.316;8.670;2022-09-09T14:32:34;8.93;;;4.80;;
46815;SDS011;32787;53.316;8.670;2022-09-09T14:34:59;8.80;;;4.55;;
46815;SDS011;32787;53.316;8.670;2022-09-09T14:37:26;11.23;;;5.45;;
46815;SDS011;32787;53.316;8.670;2022-09-09T14:39:52;10.63;;;4.30;;
46815;SDS011;32787;53.316;8.670;2022-09-09T14:42:19;11.30;;;4.45;;
46815;SDS011;32787;53.316;8.670;2022-09-09T14:44:45;7.72;;;4.25;;
46815;SDS011;32787;53.316;8.670;2022-09-09T14:47:10;8.95;;;4.75;;
46815;SDS011;32787;53.316;8.670;2022-09-09T14:49:36;11.82;;;4.50;;
46815;SDS011;32787;53.316;8.670;2022-09-09T14:52:03;8.85;;;4.47;;
46815;SDS011;32787;53.316;8.670;2022-09-09T14:54:29;10.10;;;4.70;;
46815;SDS011;32787;53.316;8.670;2022-09-09T14:56:56;8.88;;;4.20;;
46815;SDS011;32787;53.316;8.670;2022-09-09T14:59:22;9.23;;;4.53;;
46815;SDS011;32787;53.316;8.670;2022-09-09T15:01:48;6.35;;;4.10;;
46815;SDS011;32787;53.316;8.670;2022-09-09T15:04:14;8.73;;;4.20;;
46815;SDS011;32787;53.316;8.670;2022-09-09T15:06:40;8.13;;;4.47;;
46815;SDS011;32787;53.316;8.670;2022-09-09T15:09:07;15.07;;;5.07;;
46815;SDS011;32787;53.316;8.670;2022-09-09T15:11:34;11.75;;;4.60;;
46815;SDS011;32787;53.316;8.670;2022-09-09T15:14:05;8.63;;;4.28;;
46815;SDS011;32787;53.316;8.670;2022-09-09T15:16:32;11.40;;;5.07;;
46815;SDS011;32787;53.316;8.670;2022-09-09T15:18:59;9.35;;;5.10;;
46815;SDS011;32787;53.316;8.670;2022-09-09T15:21:27;11.38;;;4.70;;
46815;SDS011;32787;53.316;8.670;2022-09-09T15:23:55;11.70;;;5.10;;
46815;SDS011;32787;53.316;8.670;2022-09-09T15:26:21;8.45;;;4.53;;
46815;SDS011;32787;53.316;8.670;2022-09-09T15:28:47;10.40;;;5.03;;
46815;SDS011;32787;53.316;8.670;2022-09-09T15:31:15;9.45;;;5.13;;
46815;SDS011;32787;53.316;8.670;2022-09-09T15:33:53;10.60;;;5.68;;
46815;SDS011;32787;53.316;8.670;2022-09-09T15:36:26;10.07;;;5.57;;
46815;SDS011;32787;53.316;8.670;2022-09-09T15:39:03;12.60;;;6.35;;
46815;SDS011;32787;53.316;8.670;2022-09-09T15:41:30;10.23;;;5.88;;
46815;SDS011;32787;53.316;8.670;2022-09-09T15:43:57;13.80;;;6.70;;
46815;SDS011;32787;53.316;8.670;2022-09-09T15:48:57;9.30;;;6.68;;
46815;SDS011;32787;53.316;8.670;2022-09-09T15:51:27;13.45;;;5.93;;
46815;SDS011;32787;53.316;8.670;2022-09-09T15:53:53;12.10;;;5.57;;
46815;SDS011;32787;53.316;8.670;2022-09-09T15:56:21;13.27;;;5.72;;
46815;SDS011;32787;53.316;8.670;2022-09-09T15:58:47;10.90;;;5.90;;
46815;SDS011;32787;53.316;8.670;2022-09-09T16:01:12;9.13;;;5.78;;
46815;SDS011;32787;53.316;8.670;2022-09-09T16:03:41;11.75;;;6.40;;
46815;SDS011;32787;53.316;8.670;2022-09-09T16:06:08;12.90;;;5.57;;
46815;SDS011;32787;53.316;8.670;2022-09-09T16:11:05;12.63;;;5.55;;
46815;SDS011;32787;53.316;8.670;2022-09-09T16:13:35;10.35;;;5.95;;
46815;SDS011;32787;53.316;8.670;2022-09-09T16:16:02;9.85;;;5.30;;
46815;SDS011;32787;53.316;8.670;2022-09-09T16:18:39;12.05;;;5.68;;
46815;SDS011;32787;53.316;8.670;2022-09-09T16:21:29;9.52;;;5.53;;
46815;SDS011;32787;53.316;8.670;2022-09-09T16:23:57;9.60;;;5.30;;
46815;SDS011;32787;53.316;8.670;2022-09-09T16:26:24;10.50;;;5.13;;
46815;SDS011;32787;53.316;8.670;2022-09-09T16:28:50;9.73;;;4.45;;
46815;SDS011;32787;53.316;8.670;2022-09-09T16:31:17;9.13;;;4.72;;
46815;SDS011;32787;53.316;8.670;2022-09-09T16:33:44;11.30;;;5.10;;
46815;SDS011;32787;53.316;8.670;2022-09-09T16:36:12;10.70;;;5.07;;
46815;SDS011;32787;53.316;8.670;2022-09-09T16:38:42;10.57;;;4.55;;
46815;SDS011;32787;53.316;8.670;2022-09-09T16:41:09;12.48;;;4.60;;
46815;SDS011;32787;53.316;8.670;2022-09-09T16:43:36;10.10;;;4.05;;
46815;SDS011;32787;53.316;8.670;2022-09-09T16:46:02;9.40;;;4.40;;
46815;SDS011;32787;53.316;8.670;2022-09-09T16:48:32;8.48;;;4.05;;
46815;SDS011;32787;53.316;8.670;2022-09-09T16:51:05;11.67;;;4.63;;
46815;SDS011;32787;53.316;8.670;2022-09-09T16:53:33;8.65;;;4.85;;
46815;SDS011;32787;53.316;8.670;2022-09-09T16:56:08;8.38;;;5.13;;
46815;SDS011;32787;53.316;8.670;2022-09-09T16:58:36;8.27;;;4.85;;
46815;SDS011;32787;53.316;8.670;2022-09-09T17:01:03;10.77;;;5.22;;
46815;SDS011;32787;53.316;8.670;2022-09-09T17:03:30;8.65;;;4.43;;
46815;SDS011;32787;53.316;8.670;2022-09-09T17:05:57;9.60;;;4.53;;
46815;SDS011;32787;53.316;8.670;2022-09-09T17:08:23;9.93;;;4.55;;
46815;SDS011;32787;53.316;8.670;2022-09-09T17:10:49;8.27;;;4.30;;
46815;SDS011;32787;53.316;8.670;2022-09-09T17:13:15;7.95;;;4.10;;
46815;SDS011;32787;53.316;8.670;2022-09-09T17:15:44;8.95;;;4.68;;
46815;SDS011;32787;53.316;8.670;2022-09-09T17:18:10;8.55;;;4.20;;
46815;SDS011;32787;53.316;8.670;2022-09-09T17:20:38;9.27;;;4.60;;
46815;SDS011;32787;53.316;8.670;2022-09-09T17:23:08;9.13;;;4.78;;